Arches Natl Park, Utah
Current Conditions -  °F | °C
As of 8:53 PM on Tuesday 25 Nov 2014 (Local Time) from KCNY Reporting Station
Few Clouds Few Clouds  
Wind Chill: -5°   Ceiling: Unl
Heat Index: -2°   Visibility: 10mi
Dew Point: -14°   Wind: 5mph
Humidity: 40%   Direction: 310°NW
Pressure: 30.29"   Gusts: NA
Location:  38.7°N, 109.75°W
Report Text: KCNY 260353Z AUTO 31004KT 10SM FEW070 M02/M14 A3029 RMK AO2 SLP280 T10171139
Loading
Personal Weather Stations






























Interactive Weather Map New forecast layout! Learn more

10-Day Weather Forecast

Advertisements
Track Severe Weather on mobile